Time;durP1;ratioP1;P1;durP2;ratioP2;P2;SDS_P1;SDS_P2;PMS_P1;PMS_P2;Temp;Humidity;BMP_temperature;BMP_pressure;BME280_temperature;BME280_humidity;BME280_pressure;Samples;Min_cycle;Max_cycle;Signal;HPM_P1;HPM_P2
2022/05/01 07:58:26;;;;;;;23.58;20.17;;;;;;;10.20;74.19;102322.00;5311465;27;1191855;-77
2022/05/01 08:01:01;;;;;;;21.60;19.00;;;;;;;10.33;74.19;102321.72;5343789;27;20092;-76
2022/05/01 08:06:22;;;;;;;20.45;18.25;;;;;;;10.37;73.13;102317.31;5342177;28;20487;-77
2022/05/01 08:08:53;;;;;;;20.95;18.17;;;;;;;10.40;72.86;102315.97;5340296;28;20027;-76
2022/05/01 08:11:25;;;;;;;18.13;15.63;;;;;;;10.48;70.49;102309.16;5341510;28;20110;-77
2022/05/01 08:13:57;;;;;;;17.55;15.50;;;;;;;10.62;69.94;102311.34;5337355;27;20020;-76
2022/05/01 08:16:28;;;;;;;17.33;15.50;;;;;;;10.68;69.94;102306.69;5321551;28;20024;-77
2022/05/01 08:21:49;;;;;;;16.55;12.55;;;;;;;10.81;66.99;102309.16;5341243;28;20389;-76
2022/05/01 08:24:20;;;;;;;12.23;10.95;;;;;;;11.02;65.12;102306.66;5364052;22;20049;-77
2022/05/01 08:27:04;;;;;;;15.25;11.55;;;;;;;11.17;64.59;102305.97;5279078;28;20557;-77
2022/05/01 08:29:38;;;;;;;16.25;11.45;;;;;;;11.16;64.15;102305.16;5278935;28;20480;-76
2022/05/01 08:32:09;;;;;;;12.77;11.38;;;;;;;11.28;63.88;102296.69;5279243;28;20025;-76
2022/05/01 08:34:40;;;;;;;11.68;10.05;;;;;;;11.42;62.46;102297.13;5279136;28;20024;-79
2022/05/01 08:37:12;;;;;;;10.93;6.90;;;;;;;11.50;58.12;102305.84;5279455;28;20040;-76
2022/05/01 08:39:43;;;;;;;10.27;8.93;;;;;;;11.66;59.48;102306.84;5276732;28;20028;-75
2022/05/01 08:42:14;;;;;;;10.55;8.40;;;;;;;11.69;58.98;102306.31;5277844;28;20094;-78
2022/05/01 08:44:47;;;;;;;9.60;8.60;;;;;;;11.86;57.49;102305.38;5279025;28;20036;-77
2022/05/01 08:47:28;;;;;;;9.30;8.40;;;;;;;11.96;56.19;102305.50;5278426;28;20534;-76
2022/05/01 08:50:00;;;;;;;12.48;9.90;;;;;;;11.97;58.82;102301.63;5278585;28;20028;-77
2022/05/01 08:52:34;;;;;;;11.93;10.70;;;;;;;12.23;58.26;102296.31;5278839;28;20025;-76
2022/05/01 08:55:06;;;;;;;8.60;6.78;;;;;;;12.39;53.65;102298.09;5277650;28;20025;-76
2022/05/01 08:57:38;;;;;;;15.00;11.52;;;;;;;12.54;53.63;102289.84;5278537;28;20029;-76
2022/05/01 09:00:13;;;;;;;43.90;37.05;;;;;;;12.52;51.20;102292.06;5272028;28;20025;-76
2022/05/01 09:02:44;;;;;;;12.75;7.97;;;;;;;12.35;53.67;102292.22;5277619;28;20032;-75
2022/05/01 09:05:16;;;;;;;6.82;6.13;;;;;;;12.52;52.09;102302.34;5278795;28;20017;-76
2022/05/01 09:07:47;;;;;;;21.75;18.85;;;;;;;12.43;50.62;102293.69;5276059;28;20029;-78
2022/05/01 09:10:25;;;;;;;12.30;9.50;;;;;;;12.52;50.96;102294.00;5263660;28;20036;-77
2022/05/01 09:12:56;;;;;;;15.00;8.68;;;;;;;12.34;51.16;102300.84;5264703;28;20017;-77
2022/05/01 09:15:41;;;;;;;17.45;12.50;;;;;;;12.43;51.49;102299.25;5264551;28;20416;-78
2022/05/01 09:18:16;;;;;;;8.20;6.60;;;;;;;12.33;49.48;102299.16;5264716;28;20086;-78
2022/05/01 09:21:01;;;;;;;8.10;6.35;;;;;;;12.38;50.97;102299.22;5263997;28;20032;-78
2022/05/01 09:23:41;;;;;;;7.25;6.05;;;;;;;12.35;50.14;102296.97;5263345;28;20045;-78
2022/05/01 09:26:15;;;;;;;12.05;7.13;;;;;;;12.30;49.64;102294.13;5264872;28;20021;-78
2022/05/01 09:28:54;;;;;;;9.23;6.95;;;;;;;12.36;49.05;102299.47;5264268;28;20329;-79
2022/05/01 09:31:50;;;;;;;8.43;7.55;;;;;;;12.40;49.48;102291.44;5263677;28;20475;-79
2022/05/01 09:34:30;;;;;;;9.80;7.90;;;;;;;12.42;49.34;102300.34;5263724;28;20136;-78
2022/05/01 09:37:03;;;;;;;18.25;14.55;;;;;;;12.49;48.41;102297.34;5263307;28;20025;-78
2022/05/01 09:39:37;;;;;;;7.90;7.05;;;;;;;12.47;49.12;102294.81;5264382;28;20529;-78
2022/05/01 09:42:14;;;;;;;28.93;23.90;;;;;;;12.63;49.31;102293.00;5264340;28;20124;-74
2022/05/01 09:45:06;;;;;;;15.18;13.68;;;;;;;12.72;48.11;102290.53;5263466;28;20025;-75
2022/05/01 09:47:42;;;;;;;8.05;6.85;;;;;;;12.78;47.08;102289.44;5262163;28;20017;-76
2022/05/01 09:50:15;;;;;;;8.15;7.35;;;;;;;12.93;47.21;102291.47;5261276;28;20040;-76
2022/05/01 09:52:56;;;;;;;8.13;6.75;;;;;;;12.87;47.34;102298.97;5263971;28;20021;-77
2022/05/01 09:55:29;;;;;;;8.20;6.80;;;;;;;12.72;47.48;102290.53;5263355;28;20044;-78
2022/05/01 09:58:08;;;;;;;8.55;6.65;;;;;;;12.86;47.82;102294.50;5262041;28;20369;-76
2022/05/01 10:00:44;;;;;;;6.78;6.10;;;;;;;12.76;46.99;102305.59;5259598;28;20419;-80
2022/05/01 10:03:29;;;;;;;9.20;6.85;;;;;;;12.88;47.43;102292.28;5264182;28;20024;-76
2022/05/01 10:06:01;;;;;;;7.73;6.63;;;;;;;12.87;46.25;102287.00;5263261;28;20465;-77
2022/05/01 10:08:33;;;;;;;8.35;6.90;;;;;;;12.95;46.43;102292.88;5263544;28;20480;-76
2022/05/01 10:11:05;;;;;;;8.10;6.53;;;;;;;12.91;45.46;102286.19;5262428;28;20032;-75
2022/05/01 10:13:38;;;;;;;7.70;6.75;;;;;;;12.97;45.79;102287.88;5263050;28;20075;-75
2022/05/01 10:16:11;;;;;;;7.63;6.72;;;;;;;13.03;45.83;102281.22;5263400;28;20109;-76
2022/05/01 10:18:44;;;;;;;9.38;7.00;;;;;;;12.98;45.46;102280.34;5259119;28;20033;-76
2022/05/01 10:21:16;;;;;;;8.57;6.47;;;;;;;13.03;46.49;102280.38;5261668;28;20032;-76
2022/05/01 10:23:48;;;;;;;7.30;6.57;;;;;;;12.98;45.74;102278.41;5262309;28;20037;-76
2022/05/01 10:26:29;;;;;;;8.95;7.65;;;;;;;13.10;46.03;102280.16;5261843;28;20035;-75
2022/05/01 10:29:16;;;;;;;9.02;7.22;;;;;;;13.10;46.55;102269.00;5260798;28;20028;-76
2022/05/01 10:32:23;;;;;;;13.15;10.10;;;;;;;13.20;46.10;102274.63;5262692;28;20104;-77
2022/05/01 10:35:28;;;;;;;8.05;6.55;;;;;;;13.24;45.96;102267.38;5255462;28;20124;-77
2022/05/01 10:38:17;;;;;;;8.82;6.82;;;;;;;13.32;46.21;102266.91;5263347;28;20408;-77
2022/05/01 10:40:51;;;;;;;7.80;6.75;;;;;;;13.29;45.37;102264.63;5263116;28;20113;-76
2022/05/01 10:43:25;;;;;;;6.78;6.10;;;;;;;13.45;46.17;102265.53;5263832;28;20465;-75
2022/05/01 10:46:24;;;;;;;8.43;6.88;;;;;;;13.44;45.26;102263.84;5263011;28;20040;-75
2022/05/01 10:49:00;;;;;;;10.18;7.03;;;;;;;13.44;45.36;102258.28;5262691;28;20029;-77
2022/05/01 10:51:31;;;;;;;7.50;6.72;;;;;;;13.34;44.42;102258.25;5262862;28;20104;-76
2022/05/01 10:54:13;;;;;;;7.60;6.95;;;;;;;13.37;45.67;102258.56;5262510;28;20670;-75
2022/05/01 10:56:45;;;;;;;7.57;6.80;;;;;;;13.49;44.54;102261.06;5262439;28;20484;-78
2022/05/01 10:59:34;;;;;;;8.57;7.70;;;;;;;13.54;44.47;102249.09;5262721;28;20033;-77
2022/05/01 11:02:19;;;;;;;9.77;7.10;;;;;;;13.45;45.20;102249.66;5262715;28;20086;-77
2022/05/01 11:04:59;;;;;;;8.20;7.38;;;;;;;13.38;44.45;102248.25;5262431;28;20041;-76
2022/05/01 11:07:34;;;;;;;7.72;6.93;;;;;;;13.41;44.38;102247.69;5262143;28;20097;-76
2022/05/01 11:10:09;;;;;;;8.75;7.53;;;;;;;13.44;44.72;102247.97;5261846;28;20021;-76
2022/05/01 11:12:44;;;;;;;8.03;7.23;;;;;;;13.31;43.93;102240.13;5262787;28;20159;-77
2022/05/01 11:17:51;;;;;;;10.10;6.97;;;;;;;13.35;44.52;102240.44;5302805;28;20059;-77
2022/05/01 11:20:22;;;;;;;7.78;6.95;;;;;;;13.44;44.46;102233.19;5304096;28;20020;-79
2022/05/01 11:22:53;;;;;;;8.43;7.60;;;;;;;13.53;43.92;102234.34;5303359;28;20035;-73
2022/05/01 11:25:38;;;;;;;9.27;7.38;;;;;;;13.63;44.37;102233.53;5304153;28;20089;-73
2022/05/01 11:28:36;;;;;;;8.73;7.28;;;;;;;13.73;44.65;102219.59;5304772;28;20028;-73
2022/05/01 11:31:35;;;;;;;7.43;6.70;;;;;;;13.88;44.40;102219.59;5303665;28;20050;-77
2022/05/01 11:34:16;;;;;;;9.73;7.18;;;;;;;13.92;43.90;102219.88;5303777;28;20024;-75
2022/05/01 11:36:57;;;;;;;8.38;7.50;;;;;;;13.78;43.22;102214.03;5297338;28;20103;-77
2022/05/01 11:39:43;;;;;;;9.65;8.00;;;;;;;13.80;43.61;102217.34;5303872;28;20030;-80
2022/05/01 11:42:36;;;;;;;10.18;6.22;;;;;;;13.87;43.63;102215.13;5303909;28;20028;-80
2022/05/01 11:45:10;;;;;;;9.38;7.60;;;;;;;13.86;42.85;102215.41;5304622;28;20055;-80
2022/05/01 11:47:43;;;;;;;8.90;7.37;;;;;;;13.71;43.10;102202.31;5283752;28;20040;-79
2022/05/01 11:50:19;;;;;;;9.30;7.50;;;;;;;13.78;43.15;102197.28;5281929;28;20033;-81
2022/05/01 11:52:54;;;;;;;9.68;8.00;;;;;;;13.77;43.26;102195.59;5300379;28;20052;-80
2022/05/01 12:02:24;;;;;;;11.07;7.68;;;;;;;13.49;43.15;102202.53;5302789;28;20032;-79
2022/05/01 12:04:28;;;;;;;9.23;7.68;;;;;;;13.72;43.08;102191.97;5282644;28;20052;-80
2022/05/01 12:07:12;;;;;;;8.32;7.53;;;;;;;13.92;43.45;102187.22;5282958;28;20044;-79
2022/05/01 12:09:46;;;;;;;8.57;6.20;;;;;;;14.17;42.83;102188.34;5286664;28;20020;-75
2022/05/01 12:12:22;;;;;;;31.48;24.48;;;;;;;14.23;42.23;102180.78;5294743;28;20063;-76
2022/05/01 12:14:53;;;;;;;7.47;6.68;;;;;;;14.48;42.48;102182.69;5304183;28;20031;-75
2022/05/01 12:17:25;;;;;;;9.45;7.88;;;;;;;14.43;42.48;102180.75;5296642;28;20042;-77
2022/05/01 12:19:58;;;;;;;7.07;6.35;;;;;;;14.34;42.33;102172.13;5304831;28;20073;-75
2022/05/01 12:22:31;;;;;;;7.40;6.55;;;;;;;14.40;42.57;102169.31;5294379;28;20029;-78
2022/05/01 12:25:03;;;;;;;11.27;7.68;;;;;;;14.50;43.03;102170.13;5282186;28;20067;-76
2022/05/01 12:27:35;;;;;;;8.75;7.50;;;;;;;14.42;42.30;102169.84;5289771;28;20107;-77
2022/05/01 12:30:08;;;;;;;7.53;6.78;;;;;;;14.42;43.00;102167.91;5303520;28;20104;-76
2022/05/01 12:32:52;;;;;;;9.43;7.03;;;;;;;14.55;43.65;102163.72;5302571;28;20024;-76
2022/05/01 12:35:24;;;;;;;9.68;8.55;;;;;;;14.46;43.10;102162.59;5297865;28;20020;-75
2022/05/01 12:37:58;;;;;;;8.48;7.40;;;;;;;14.55;43.33;102160.94;5303877;28;20417;-76
2022/05/01 12:43:52;;;;;;;8.93;8.02;;;;;;;14.34;42.76;102155.38;5292070;28;20071;-77
2022/05/01 12:46:28;;;;;;;8.13;7.32;;;;;;;14.42;43.12;102150.31;5306919;28;20537;-76
2022/05/01 12:49:02;;;;;;;10.82;8.15;;;;;;;14.38;43.33;102152.84;5308278;28;20031;-76
2022/05/01 12:51:41;;;;;;;10.48;7.55;;;;;;;14.46;42.99;102154.22;5307514;28;20039;-76
2022/05/01 12:54:18;;;;;;;10.00;7.85;;;;;;;14.53;42.78;102149.19;5294288;28;20036;-75
2022/05/01 12:56:50;;;;;;;8.43;7.63;;;;;;;14.50;42.21;102149.75;5295475;28;20024;-77
2022/05/01 12:59:30;;;;;;;13.15;8.75;;;;;;;14.87;42.13;102146.53;5306682;28;20399;-77
2022/05/01 13:02:01;;;;;;;13.98;7.72;;;;;;;15.15;40.52;102147.75;5288194;28;20421;-78
2022/05/01 13:04:34;;;;;;;8.23;7.43;;;;;;;15.43;40.08;102148.13;5306031;28;20121;-76
2022/05/01 13:07:05;;;;;;;8.77;7.57;;;;;;;15.82;39.60;102141.69;5305541;28;20024;-77
2022/05/01 13:09:49;;;;;;;14.27;10.60;;;;;;;16.13;39.86;102138.59;5289384;28;20171;-75
2022/05/01 13:12:32;;;;;;;8.32;7.50;;;;;;;16.11;39.01;102140.88;5293595;28;20480;-75
2022/05/01 13:15:04;;;;;;;8.60;7.82;;;;;;;15.77;38.34;102139.78;5306024;28;20036;-74
2022/05/01 13:17:36;;;;;;;6.90;6.20;;;;;;;15.62;38.96;102142.66;5306420;28;20051;-76
2022/05/01 13:20:07;;;;;;;7.97;7.18;;;;;;;15.58;39.73;102134.03;5306882;28;20028;-76
2022/05/01 13:22:39;;;;;;;7.55;6.78;;;;;;;15.56;39.92;102132.66;5297476;28;20043;-75
2022/05/01 13:25:13;;;;;;;15.13;9.15;;;;;;;15.77;39.38;102134.19;5287311;28;20048;-75
2022/05/01 13:27:44;;;;;;;8.57;6.68;;;;;;;15.93;39.49;102129.28;5285667;28;20021;-76
2022/05/01 13:30:15;;;;;;;7.95;7.18;;;;;;;16.19;38.83;102120.63;5284749;28;20024;-76
2022/05/01 13:32:46;;;;;;;8.20;6.32;;;;;;;16.15;37.61;102113.94;5286123;28;20028;-77
2022/05/01 13:35:18;;;;;;;8.30;7.35;;;;;;;16.13;38.18;102116.19;5293997;28;20024;-76
2022/05/01 13:37:50;;;;;;;7.30;6.38;;;;;;;16.08;37.98;102111.50;5293383;28;20411;-76
2022/05/01 13:46:01;;;;;;;8.02;6.53;;;;;;;15.90;38.89;102103.84;5306376;28;20032;-75
2022/05/01 13:48:32;;;;;;;7.18;6.35;;;;;;;15.99;39.29;102100.13;5292633;28;20464;-73
2022/05/01 13:51:03;;;;;;;8.63;7.07;;;;;;;15.77;38.97;102102.56;5284626;28;20029;-74
2022/05/01 13:53:35;;;;;;;7.65;6.50;;;;;;;15.79;38.57;102105.91;5286911;28;20169;-72
2022/05/01 13:56:06;;;;;;;8.55;6.63;;;;;;;15.70;38.93;102097.34;5305347;28;20020;-74
2022/05/01 13:58:41;;;;;;;9.77;6.28;;;;;;;15.84;39.46;102094.69;5303991;28;20032;-73
2022/05/01 14:01:12;;;;;;;9.27;7.17;;;;;;;15.56;39.06;102090.72;5306019;28;20391;-73
2022/05/01 14:03:45;;;;;;;8.48;6.40;;;;;;;15.71;39.31;102084.19;5300663;28;20031;-73
2022/05/01 14:06:16;;;;;;;9.75;6.72;;;;;;;15.85;39.43;102087.97;5292757;28;20369;-75
2022/05/01 14:08:52;;;;;;;10.80;8.35;;;;;;;15.98;39.44;102092.03;5305511;28;20036;-75
2022/05/01 14:11:25;;;;;;;8.90;6.55;;;;;;;16.05;38.73;102084.09;5296228;28;20501;-76
2022/05/01 14:13:57;;;;;;;9.55;6.78;;;;;;;15.99;38.54;102088.09;5289631;28;20542;-76
2022/05/01 14:16:32;;;;;;;9.93;8.95;;;;;;;15.88;38.73;102076.19;5304293;28;20067;-76
2022/05/01 14:19:03;;;;;;;6.88;6.20;;;;;;;15.92;38.12;102085.63;5295186;28;20089;-76
2022/05/01 14:21:38;;;;;;;6.53;5.90;;;;;;;16.25;38.01;102078.25;5305900;28;20035;-76
2022/05/01 14:24:11;;;;;;;8.52;5.80;;;;;;;16.22;37.57;102075.25;5289673;28;20037;-76
2022/05/01 14:26:44;;;;;;;7.40;5.47;;;;;;;16.50;37.07;102076.28;5283693;28;20380;-76
2022/05/01 14:29:15;;;;;;;6.88;6.18;;;;;;;16.33;36.96;102075.94;5297187;28;20111;-76
2022/05/01 14:32:08;;;;;;;8.40;6.30;;;;;;;16.24;37.47;102079.41;5290663;28;20104;-76
2022/05/01 14:34:57;;;;;;;7.43;6.18;;;;;;;16.20;36.93;102077.50;5291271;28;20021;-76
2022/05/01 14:37:40;;;;;;;8.43;6.18;;;;;;;16.45;36.81;102063.19;5289384;28;20040;-76
2022/05/01 14:40:14;;;;;;;14.38;9.38;;;;;;;16.48;36.80;102070.16;5303859;28;20107;-75
2022/05/01 14:42:48;;;;;;;7.05;6.18;;;;;;;16.47;36.41;102068.50;5305512;28;20375;-76
2022/05/01 14:45:27;;;;;;;6.95;6.30;;;;;;;16.42;36.34;102068.56;5295814;28;20028;-77
2022/05/01 14:48:13;;;;;;;7.60;5.95;;;;;;;16.59;36.88;102068.03;5304786;28;20028;-74
2022/05/01 14:50:46;;;;;;;7.82;5.82;;;;;;;16.55;36.62;102067.00;5304658;28;20034;-74
2022/05/01 14:53:18;;;;;;;7.70;6.82;;;;;;;16.65;36.04;102067.69;5292646;28;20490;-74
2022/05/01 14:55:50;;;;;;;7.10;6.05;;;;;;;16.48;35.96;102062.56;5286317;28;20480;-74
2022/05/01 15:06:57;;;;;;;7.00;6.28;;;;;;;16.66;36.62;102057.31;5300934;28;20039;-76
2022/05/01 15:09:31;;;;;;;6.43;5.68;;;;;;;16.46;35.80;102059.28;5304301;28;20168;-75
2022/05/01 15:12:03;;;;;;;6.57;5.90;;;;;;;16.53;36.75;102059.72;5304474;28;20020;-76
2022/05/01 15:14:41;;;;;;;7.60;6.10;;;;;;;16.53;36.49;102048.50;5302165;28;20016;-76
2022/05/01 15:17:17;;;;;;;8.27;6.38;;;;;;;16.46;36.43;102047.22;5303642;28;20373;-75
2022/05/01 15:19:59;;;;;;;9.23;6.50;;;;;;;16.34;36.71;102050.47;5302028;28;20411;-75
2022/05/01 15:22:47;;;;;;;6.25;5.65;;;;;;;16.61;36.95;102048.97;5303605;28;20020;-74
2022/05/01 15:25:25;;;;;;;6.88;6.15;;;;;;;16.43;37.18;102043.03;5304016;28;20032;-76
2022/05/01 15:28:03;;;;;;;7.72;5.97;;;;;;;16.65;37.07;102044.44;5302917;28;20023;-74
2022/05/01 15:30:40;;;;;;;7.40;6.47;;;;;;;16.53;36.51;102042.91;5304459;28;20111;-75
2022/05/01 15:36:21;;;;;;;8.75;7.40;;;;;;;16.37;36.99;102038.66;5282786;28;20542;-77
2022/05/01 15:38:56;;;;;;;8.88;6.97;;;;;;;16.19;36.62;102036.66;5283158;28;20032;-75
2022/05/01 15:41:47;;;;;;;7.13;5.90;;;;;;;16.22;36.85;102039.69;5294944;28;20032;-75
2022/05/01 15:44:18;;;;;;;7.28;6.47;;;;;;;16.12;36.70;102041.78;5304266;28;20039;-76
2022/05/01 15:46:58;;;;;;;6.75;5.68;;;;;;;16.23;37.19;102038.56;5302522;28;20028;-75
2022/05/01 15:55:16;;;;;;;7.72;6.47;;;;;;;15.90;37.64;102040.38;5303434;28;20036;-76
2022/05/01 15:57:48;;;;;;;7.40;6.70;;;;;;;15.71;37.75;102039.44;5301994;28;20038;-76
2022/05/01 16:00:21;;;;;;;9.65;6.57;;;;;;;15.96;38.19;102033.56;5303647;28;20471;-76
2022/05/01 16:02:55;;;;;;;9.77;6.85;;;;;;;15.99;37.84;102037.72;5302399;28;20055;-75
2022/05/01 16:05:28;;;;;;;7.88;5.53;;;;;;;16.16;38.16;102037.25;5303890;28;20036;-76
2022/05/01 16:08:02;;;;;;;6.40;5.80;;;;;;;16.20;37.27;102043.91;5303305;28;20133;-76
2022/05/01 16:10:40;;;;;;;7.72;6.10;;;;;;;16.18;37.31;102035.84;5302693;28;20032;-78
2022/05/01 16:13:39;;;;;;;7.72;6.80;;;;;;;16.09;37.64;102032.03;5289922;28;20475;-77
2022/05/01 16:16:13;;;;;;;8.57;7.03;;;;;;;16.09;37.61;102038.44;5300009;28;20071;-77
2022/05/01 16:19:13;;;;;;;8.75;6.25;;;;;;;16.13;37.84;102032.25;5304402;28;20092;-78
2022/05/01 16:21:59;;;;;;;7.47;6.68;;;;;;;16.04;37.42;102035.69;5308424;28;20061;-78
2022/05/01 16:24:44;;;;;;;19.58;6.93;;;;;;;16.31;37.62;102023.06;5307099;28;20348;-78
2022/05/01 16:27:54;;;;;;;7.00;6.30;;;;;;;16.46;37.43;102031.28;5307099;28;20032;-78
2022/05/01 16:30:27;;;;;;;8.18;6.82;;;;;;;16.47;37.72;102027.31;5307864;28;20024;-79
2022/05/01 16:33:04;;;;;;;8.93;6.03;;;;;;;16.62;37.65;102025.47;5306011;28;20036;-78
2022/05/01 16:35:38;;;;;;;10.18;7.15;;;;;;;16.56;37.41;102023.84;5307624;28;20044;-78
2022/05/01 16:38:12;;;;;;;9.85;7.00;;;;;;;16.22;37.47;102016.47;5296144;28;20482;-77
2022/05/01 16:40:45;;;;;;;7.97;7.03;;;;;;;16.40;36.94;102015.66;5286312;28;20033;-77
2022/05/01 16:43:18;;;;;;;10.00;8.13;;;;;;;16.50;37.08;102021.13;5286790;28;20495;-78
2022/05/01 16:45:52;;;;;;;6.78;6.07;;;;;;;16.37;37.40;102012.63;5304206;28;20021;-78
2022/05/01 16:48:29;;;;;;;10.68;6.78;;;;;;;16.37;37.18;102016.25;5305723;28;20558;-78
2022/05/01 16:51:02;;;;;;;7.25;6.28;;;;;;;16.53;37.06;102012.09;5295303;28;20028;-77
2022/05/01 16:53:35;;;;;;;8.13;7.10;;;;;;;16.33;37.16;102014.34;5297799;28;20020;-76
2022/05/01 16:56:10;;;;;;;7.72;6.65;;;;;;;16.38;37.01;102009.53;5306318;28;20063;-77
2022/05/01 16:58:42;;;;;;;8.10;6.50;;;;;;;16.39;37.19;102002.81;5296716;28;20356;-78
2022/05/01 17:01:24;;;;;;;9.38;6.50;;;;;;;16.49;37.00;102013.03;5305863;28;20052;-76
2022/05/01 17:03:58;;;;;;;7.82;6.13;;;;;;;16.37;36.70;102007.88;5307120;28;20356;-75
2022/05/01 17:06:42;;;;;;;7.47;6.70;;;;;;;16.43;36.98;102012.25;5306280;28;20020;-75
2022/05/01 17:09:26;;;;;;;7.72;6.63;;;;;;;16.38;37.04;102006.72;5299390;28;20021;-75
2022/05/01 17:12:12;;;;;;;7.45;6.07;;;;;;;16.30;36.89;102016.63;5297725;28;20036;-75
2022/05/01 17:14:51;;;;;;;8.07;6.00;;;;;;;16.28;36.62;102006.84;5298694;28;20032;-74
2022/05/01 17:17:42;;;;;;;6.63;6.03;;;;;;;16.26;37.00;102009.16;5303395;28;20040;-76
2022/05/01 17:20:17;;;;;;;8.10;6.13;;;;;;;15.83;37.27;102011.91;5305889;28;20023;-75
2022/05/01 17:22:51;;;;;;;;;;;;;;;16.11;37.39;102006.53;5306990;28;20169;-76
2022/05/01 17:25:28;;;;;;;9.30;6.40;;;;;;;15.84;37.55;102008.78;5301683;28;20054;-75
2022/05/01 17:28:01;;;;;;;6.88;6.18;;;;;;;15.74;38.29;102008.91;5285110;28;20077;-75
